»·PEaware :: N5491J KSNA-KBUR

N5491J :: KSNA-KBUR

FLIGHT INFORMATION

Flight Status: Arrived
Operator: Privately registered:
United States
More flights under this callsign
Pilot: Aero Safety Training (369)
Aircraft: CESSNA 172 SKYHAWK
(C172)
More flights by this aircraft type
Origin: KSNA John Wayne-Orange Co
United States
Destination: KBUR Bob Hope-Burbank
United States
More flights between these airports :: More routes between these airports
Route: SLI V23 POPPR SMO125 SMO SMO311 SILEX
File this flight plan on PilotEdge
Remarks: in IMC conditions.
Altitude:
(Current/Filed)
4,000ft
Speed:
(Current/Filed)
105kts
Departed: 29-Dec-14 09:25 AM
Arrived: 29-Dec-14 10:02 AM
Distance/Time
Traveled:
40nm/0:37
Distance/Time
To Go:
Arrived

Flight Plot

Page will automatically refresh every two minutes.


Map Options




Map Legend


Flown Route
Filed Route
Departure Airport
Arrival Airport
Navaid (VOR, NDB)
Fix

Horizontal Profiles

Position Reports

Time Latitude Longitude Heading Altitude Ground
Speed
29-Dec-14 09:02 33.672247 -117.865244 322 59ft 0kts
29-Dec-14 09:03 33.672247 -117.865244 322 59ft 0kts
29-Dec-14 09:04 33.672249 -117.865246 322 59ft 0kts
29-Dec-14 09:05 33.672252 -117.865249 322 59ft 0kts
29-Dec-14 09:06 33.672255 -117.865252 321 59ft 0kts
29-Dec-14 09:07 33.672258 -117.865254 321 59ft 0kts
29-Dec-14 09:08 33.672261 -117.865257 321 59ft 0kts
29-Dec-14 09:09 33.672263 -117.865260 321 59ft 0kts
29-Dec-14 09:10 33.672266 -117.865262 321 59ft 0kts
29-Dec-14 09:11 33.672269 -117.865265 321 59ft 0kts
29-Dec-14 09:12 33.672273 -117.865268 321 59ft 0kts
29-Dec-14 09:13 33.672275 -117.865271 321 59ft 0kts
29-Dec-14 09:14 33.672278 -117.865274 321 59ft 0kts
29-Dec-14 09:15 33.672281 -117.865276 321 59ft 0kts
29-Dec-14 09:16 33.673062 -117.866775 313 59ft 3kts
29-Dec-14 09:17 33.678990 -117.863282 25 59ft 15kts
29-Dec-14 09:18 33.680631 -117.863160 297 59ft 0kts
29-Dec-14 09:19 33.680632 -117.863162 297 59ft 0kts
29-Dec-14 09:20 33.680523 -117.863909 208 59ft 15kts
29-Dec-14 09:21 33.666906 -117.875883 233 662ft 72kts
29-Dec-14 09:22 33.654646 -117.895403 256 1468ft 75kts
29-Dec-14 09:23 33.666347 -117.915469 311 2232ft 78kts
29-Dec-14 09:24 33.682021 -117.934739 313 3161ft 78kts
29-Dec-14 09:25 33.697656 -117.953412 314 3942ft 80kts
29-Dec-14 09:26 33.717470 -117.976184 312 4066ft 105kts
29-Dec-14 09:27 33.739191 -118.002792 315 4000ft 111kts
29-Dec-14 09:28 33.761335 -118.028821 315 3999ft 111kts
29-Dec-14 09:29 33.783243 -118.055092 302 3995ft 111kts
29-Dec-14 09:30 33.792536 -118.090412 286 4000ft 111kts
29-Dec-14 09:31 33.801518 -118.125772 287 3999ft 111kts
29-Dec-14 09:32 33.810592 -118.161386 287 3999ft 110kts
29-Dec-14 09:33 33.819631 -118.196897 287 4000ft 110kts
29-Dec-14 09:34 33.828692 -118.232526 287 4000ft 111kts
29-Dec-14 09:35 33.837709 -118.268066 286 3999ft 111kts
29-Dec-14 09:36 33.853132 -118.298800 320 4006ft 110kts
29-Dec-14 09:37 33.876975 -118.322637 319 3999ft 111kts
29-Dec-14 09:38 33.900741 -118.346472 319 3998ft 111kts
29-Dec-14 09:39 33.924551 -118.370370 319 4001ft 111kts
29-Dec-14 09:40 33.948411 -118.394340 319 3998ft 111kts
29-Dec-14 09:41 33.972173 -118.418218 319 4002ft 111kts
29-Dec-14 09:42 33.995927 -118.442115 319 4001ft 111kts
29-Dec-14 09:43 34.020237 -118.464955 325 4033ft 108kts
29-Dec-14 09:44 34.044661 -118.485885 324 4055ft 110kts
29-Dec-14 09:45 34.069964 -118.507176 324 4032ft 113kts
29-Dec-14 09:46 34.095958 -118.527472 325 4065ft 111kts
29-Dec-14 09:47 34.121955 -118.548283 326 4038ft 111kts
29-Dec-14 09:48 34.146863 -118.569756 324 4008ft 111kts
29-Dec-14 09:49 34.171904 -118.588080 328 3709ft 104kts
29-Dec-14 09:50 34.196462 -118.598599 36 3095ft 97kts
29-Dec-14 09:51 34.200666 -118.566406 86 2978ft 103kts
29-Dec-14 09:52 34.200038 -118.532239 88 3037ft 102kts
29-Dec-14 09:53 34.199858 -118.501037 89 2929ft 88kts
29-Dec-14 09:54 34.199197 -118.470445 92 2434ft 92kts
29-Dec-14 09:55 34.198817 -118.439722 90 1965ft 91kts
29-Dec-14 09:56 34.198472 -118.409214 90 1515ft 89kts
29-Dec-14 09:57 34.197965 -118.378472 90 999ft 89kts
29-Dec-14 09:58 34.197827 -118.362631 91 781ft 18kts
29-Dec-14 09:59 34.199333 -118.360173 33 781ft 25kts
29-Dec-14 10:00 34.201016 -118.360030 171 781ft 0kts

Navigation Log

Ident Type
1. KSNA Airport
2. SLI Navaid
3. POPPR Fix
4. SMO Navaid
5. SILEX Fix
6. KBUR Airport